sensor_id;sensor_type;location;lat;lon;timestamp;P1;durP1;ratioP1;P2;durP2;ratioP2
26858;SDS011;14429;48.346;16.338;2022-08-03T00:00:40;1.67;;;1.38;;
26858;SDS011;14429;48.346;16.338;2022-08-03T00:03:06;1.13;;;0.85;;
26858;SDS011;14429;48.346;16.338;2022-08-03T00:05:31;0.77;;;0.77;;
26858;SDS011;14429;48.346;16.338;2022-08-03T00:07:57;1.50;;;1.02;;
26858;SDS011;14429;48.346;16.338;2022-08-03T00:10:23;2.63;;;1.58;;
26858;SDS011;14429;48.346;16.338;2022-08-03T00:12:48;0.82;;;0.80;;
26858;SDS011;14429;48.346;16.338;2022-08-03T00:15:15;1.63;;;1.10;;
26858;SDS011;14429;48.346;16.338;2022-08-03T00:17:41;1.20;;;1.10;;
26858;SDS011;14429;48.346;16.338;2022-08-03T00:20:07;1.30;;;0.95;;
26858;SDS011;14429;48.346;16.338;2022-08-03T00:22:33;1.30;;;1.20;;
26858;SDS011;14429;48.346;16.338;2022-08-03T00:24:59;1.33;;;1.00;;
26858;SDS011;14429;48.346;16.338;2022-08-03T00:27:24;0.95;;;0.85;;
26858;SDS011;14429;48.346;16.338;2022-08-03T00:29:50;1.95;;;1.10;;
26858;SDS011;14429;48.346;16.338;2022-08-03T00:32:17;1.08;;;0.98;;
26858;SDS011;14429;48.346;16.338;2022-08-03T00:34:42;1.80;;;1.33;;
26858;SDS011;14429;48.346;16.338;2022-08-03T00:37:07;1.08;;;1.00;;
26858;SDS011;14429;48.346;16.338;2022-08-03T00:39:33;1.23;;;0.93;;
26858;SDS011;14429;48.346;16.338;2022-08-03T00:42:00;1.55;;;1.15;;
26858;SDS011;14429;48.346;16.338;2022-08-03T00:44:26;2.58;;;1.20;;
26858;SDS011;14429;48.346;16.338;2022-08-03T00:46:51;1.23;;;1.08;;
26858;SDS011;14429;48.346;16.338;2022-08-03T00:49:18;1.40;;;1.05;;
26858;SDS011;14429;48.346;16.338;2022-08-03T00:51:44;1.10;;;1.00;;
26858;SDS011;14429;48.346;16.338;2022-08-03T00:54:10;1.75;;;1.15;;
26858;SDS011;14429;48.346;16.338;2022-08-03T00:56:36;0.98;;;0.90;;
26858;SDS011;14429;48.346;16.338;2022-08-03T00:59:01;1.00;;;0.80;;
26858;SDS011;14429;48.346;16.338;2022-08-03T01:01:28;1.40;;;1.30;;
26858;SDS011;14429;48.346;16.338;2022-08-03T01:03:53;1.40;;;1.27;;
26858;SDS011;14429;48.346;16.338;2022-08-03T01:06:21;1.25;;;1.02;;
26858;SDS011;14429;48.346;16.338;2022-08-03T01:08:56;1.13;;;1.02;;
26858;SDS011;14429;48.346;16.338;2022-08-03T01:11:28;1.13;;;1.02;;
26858;SDS011;14429;48.346;16.338;2022-08-03T01:14:01;0.95;;;0.80;;
26858;SDS011;14429;48.346;16.338;2022-08-03T01:16:31;1.00;;;0.95;;
26858;SDS011;14429;48.346;16.338;2022-08-03T01:19:03;1.00;;;0.90;;
26858;SDS011;14429;48.346;16.338;2022-08-03T01:21:45;1.33;;;1.00;;
26858;SDS011;14429;48.346;16.338;2022-08-03T01:24:29;3.25;;;1.00;;
26858;SDS011;14429;48.346;16.338;2022-08-03T01:27:02;1.52;;;1.20;;
26858;SDS011;14429;48.346;16.338;2022-08-03T01:29:37;1.20;;;1.10;;
26858;SDS011;14429;48.346;16.338;2022-08-03T01:32:10;1.80;;;1.27;;
26858;SDS011;14429;48.346;16.338;2022-08-03T01:34:40;1.20;;;1.10;;
26858;SDS011;14429;48.346;16.338;2022-08-03T01:37:08;1.73;;;1.05;;
26858;SDS011;14429;48.346;16.338;2022-08-03T01:39:36;1.42;;;0.95;;
26858;SDS011;14429;48.346;16.338;2022-08-03T01:42:05;1.10;;;1.00;;
26858;SDS011;14429;48.346;16.338;2022-08-03T01:44:35;1.50;;;1.38;;
26858;SDS011;14429;48.346;16.338;2022-08-03T01:47:04;2.08;;;1.20;;
26858;SDS011;14429;48.346;16.338;2022-08-03T01:49:32;1.38;;;1.20;;
26858;SDS011;14429;48.346;16.338;2022-08-03T01:52:02;1.23;;;1.13;;
26858;SDS011;14429;48.346;16.338;2022-08-03T01:54:29;1.75;;;1.23;;
26858;SDS011;14429;48.346;16.338;2022-08-03T01:56:56;1.98;;;1.00;;
26858;SDS011;14429;48.346;16.338;2022-08-03T01:59:23;1.33;;;1.20;;
26858;SDS011;14429;48.346;16.338;2022-08-03T02:01:51;1.02;;;0.93;;
26858;SDS011;14429;48.346;16.338;2022-08-03T02:04:18;1.17;;;1.08;;
26858;SDS011;14429;48.346;16.338;2022-08-03T02:06:46;1.33;;;1.10;;
26858;SDS011;14429;48.346;16.338;2022-08-03T02:09:13;1.10;;;1.00;;
26858;SDS011;14429;48.346;16.338;2022-08-03T02:11:39;1.73;;;1.35;;
26858;SDS011;14429;48.346;16.338;2022-08-03T02:14:07;1.13;;;1.02;;
26858;SDS011;14429;48.346;16.338;2022-08-03T02:16:35;1.50;;;1.10;;
26858;SDS011;14429;48.346;16.338;2022-08-03T02:19:04;1.00;;;0.95;;
26858;SDS011;14429;48.346;16.338;2022-08-03T02:21:31;0.98;;;0.90;;
26858;SDS011;14429;48.346;16.338;2022-08-03T02:23:59;1.58;;;1.40;;
26858;SDS011;14429;48.346;16.338;2022-08-03T02:26:25;1.20;;;1.00;;
26858;SDS011;14429;48.346;16.338;2022-08-03T02:28:54;1.23;;;1.13;;
26858;SDS011;14429;48.346;16.338;2022-08-03T02:31:22;1.77;;;1.20;;
26858;SDS011;14429;48.346;16.338;2022-08-03T02:33:52;1.17;;;1.08;;
26858;SDS011;14429;48.346;16.338;2022-08-03T02:36:23;0.98;;;0.88;;
26858;SDS011;14429;48.346;16.338;2022-08-03T02:38:52;0.80;;;0.80;;
26858;SDS011;14429;48.346;16.338;2022-08-03T02:41:21;1.13;;;1.02;;
26858;SDS011;14429;48.346;16.338;2022-08-03T02:43:59;1.27;;;1.10;;
26858;SDS011;14429;48.346;16.338;2022-08-03T02:46:29;1.80;;;1.38;;
26858;SDS011;14429;48.346;16.338;2022-08-03T02:48:58;0.93;;;0.90;;
26858;SDS011;14429;48.346;16.338;2022-08-03T02:51:27;1.15;;;1.05;;
26858;SDS011;14429;48.346;16.338;2022-08-03T02:53:56;1.55;;;1.17;;
26858;SDS011;14429;48.346;16.338;2022-08-03T02:56:24;1.02;;;0.90;;
26858;SDS011;14429;48.346;16.338;2022-08-03T02:58:52;1.10;;;1.00;;
26858;SDS011;14429;48.346;16.338;2022-08-03T03:01:19;1.50;;;1.15;;
26858;SDS011;14429;48.346;16.338;2022-08-03T03:03:49;1.25;;;1.05;;
26858;SDS011;14429;48.346;16.338;2022-08-03T03:06:16;0.77;;;0.70;;
26858;SDS011;14429;48.346;16.338;2022-08-03T03:08:44;1.77;;;0.88;;
26858;SDS011;14429;48.346;16.338;2022-08-03T03:11:10;0.70;;;0.70;;
26858;SDS011;14429;48.346;16.338;2022-08-03T03:13:37;1.20;;;1.10;;
26858;SDS011;14429;48.346;16.338;2022-08-03T03:16:05;1.42;;;1.33;;
26858;SDS011;14429;48.346;16.338;2022-08-03T03:18:32;1.70;;;1.27;;
26858;SDS011;14429;48.346;16.338;2022-08-03T03:20:59;0.85;;;0.85;;
26858;SDS011;14429;48.346;16.338;2022-08-03T03:23:26;1.10;;;1.00;;
26858;SDS011;14429;48.346;16.338;2022-08-03T03:25:55;3.78;;;1.35;;
26858;SDS011;14429;48.346;16.338;2022-08-03T03:28:20;3.03;;;1.10;;
26858;SDS011;14429;48.346;16.338;2022-08-03T03:30:47;1.17;;;0.95;;
26858;SDS011;14429;48.346;16.338;2022-08-03T03:33:13;1.40;;;1.10;;
26858;SDS011;14429;48.346;16.338;2022-08-03T03:35:39;1.05;;;0.95;;
26858;SDS011;14429;48.346;16.338;2022-08-03T03:38:06;1.20;;;1.10;;
26858;SDS011;14429;48.346;16.338;2022-08-03T03:40:31;0.80;;;0.80;;
26858;SDS011;14429;48.346;16.338;2022-08-03T03:43:00;1.25;;;1.15;;
26858;SDS011;14429;48.346;16.338;2022-08-03T03:45:25;1.30;;;1.10;;
26858;SDS011;14429;48.346;16.338;2022-08-03T03:47:52;0.90;;;0.90;;
26858;SDS011;14429;48.346;16.338;2022-08-03T03:50:18;1.17;;;1.08;;
26858;SDS011;14429;48.346;16.338;2022-08-03T03:52:46;0.80;;;0.80;;
26858;SDS011;14429;48.346;16.338;2022-08-03T03:55:14;1.05;;;0.90;;
26858;SDS011;14429;48.346;16.338;2022-08-03T03:57:40;1.77;;;0.90;;
26858;SDS011;14429;48.346;16.338;2022-08-03T04:00:08;1.52;;;1.00;;
26858;SDS011;14429;48.346;16.338;2022-08-03T04:02:34;1.35;;;1.23;;
26858;SDS011;14429;48.346;16.338;2022-08-03T04:05:00;1.38;;;1.10;;
26858;SDS011;14429;48.346;16.338;2022-08-03T04:07:26;1.08;;;0.77;;
26858;SDS011;14429;48.346;16.338;2022-08-03T04:09:52;1.00;;;0.90;;
26858;SDS011;14429;48.346;16.338;2022-08-03T04:12:19;3.60;;;1.10;;
26858;SDS011;14429;48.346;16.338;2022-08-03T04:14:48;2.90;;;1.20;;
26858;SDS011;14429;48.346;16.338;2022-08-03T04:17:19;1.08;;;0.98;;
26858;SDS011;14429;48.346;16.338;2022-08-03T04:19:51;1.25;;;1.15;;
26858;SDS011;14429;48.346;16.338;2022-08-03T04:22:19;2.03;;;1.50;;
26858;SDS011;14429;48.346;16.338;2022-08-03T04:24:48;1.20;;;1.08;;
26858;SDS011;14429;48.346;16.338;2022-08-03T04:27:19;0.90;;;0.82;;
26858;SDS011;14429;48.346;16.338;2022-08-03T04:29:48;1.83;;;1.30;;
26858;SDS011;14429;48.346;16.338;2022-08-03T04:32:17;4.10;;;1.60;;
26858;SDS011;14429;48.346;16.338;2022-08-03T04:34:45;1.35;;;1.17;;
26858;SDS011;14429;48.346;16.338;2022-08-03T04:37:12;1.10;;;0.90;;
26858;SDS011;14429;48.346;16.338;2022-08-03T04:39:40;1.60;;;1.45;;
26858;SDS011;14429;48.346;16.338;2022-08-03T04:42:08;1.00;;;0.90;;
26858;SDS011;14429;48.346;16.338;2022-08-03T04:44:38;1.52;;;1.20;;
26858;SDS011;14429;48.346;16.338;2022-08-03T04:47:06;1.55;;;1.15;;
26858;SDS011;14429;48.346;16.338;2022-08-03T04:49:32;2.05;;;1.20;;
26858;SDS011;14429;48.346;16.338;2022-08-03T04:52:01;1.75;;;1.17;;
26858;SDS011;14429;48.346;16.338;2022-08-03T04:54:27;2.13;;;1.60;;
26858;SDS011;14429;48.346;16.338;2022-08-03T04:56:53;1.30;;;1.20;;
26858;SDS011;14429;48.346;16.338;2022-08-03T04:59:18;1.20;;;1.10;;
26858;SDS011;14429;48.346;16.338;2022-08-03T05:01:44;0.98;;;0.88;;
26858;SDS011;14429;48.346;16.338;2022-08-03T05:04:09;1.05;;;0.90;;
26858;SDS011;14429;48.346;16.338;2022-08-03T05:06:35;2.05;;;1.48;;
26858;SDS011;14429;48.346;16.338;2022-08-03T05:09:02;1.15;;;1.05;;
26858;SDS011;14429;48.346;16.338;2022-08-03T05:11:28;1.10;;;1.05;;
26858;SDS011;14429;48.346;16.338;2022-08-03T05:13:54;0.75;;;0.75;;
26858;SDS011;14429;48.346;16.338;2022-08-03T05:16:19;1.15;;;0.85;;
26858;SDS011;14429;48.346;16.338;2022-08-03T05:18:45;1.23;;;1.02;;
26858;SDS011;14429;48.346;16.338;2022-08-03T05:21:10;7.15;;;1.50;;
26858;SDS011;14429;48.346;16.338;2022-08-03T05:23:37;2.03;;;1.02;;
26858;SDS011;14429;48.346;16.338;2022-08-03T05:26:04;1.45;;;0.95;;
26858;SDS011;14429;48.346;16.338;2022-08-03T05:28:29;1.25;;;1.08;;
26858;SDS011;14429;48.346;16.338;2022-08-03T05:30:55;1.98;;;1.63;;
26858;SDS011;14429;48.346;16.338;2022-08-03T05:33:21;1.10;;;1.00;;
26858;SDS011;14429;48.346;16.338;2022-08-03T05:35:46;1.60;;;1.30;;
26858;SDS011;14429;48.346;16.338;2022-08-03T05:38:12;3.22;;;1.30;;
26858;SDS011;14429;48.346;16.338;2022-08-03T05:40:37;1.00;;;0.98;;
26858;SDS011;14429;48.346;16.338;2022-08-03T05:43:04;3.20;;;0.93;;
26858;SDS011;14429;48.346;16.338;2022-08-03T05:45:30;1.27;;;1.17;;
26858;SDS011;14429;48.346;16.338;2022-08-03T05:47:55;1.38;;;1.10;;
26858;SDS011;14429;48.346;16.338;2022-08-03T05:50:21;2.00;;;1.15;;
26858;SDS011;14429;48.346;16.338;2022-08-03T05:52:46;2.03;;;1.02;;
26858;SDS011;14429;48.346;16.338;2022-08-03T05:55:12;1.52;;;1.10;;
26858;SDS011;14429;48.346;16.338;2022-08-03T05:57:38;1.90;;;1.50;;
26858;SDS011;14429;48.346;16.338;2022-08-03T06:00:07;2.03;;;1.35;;
26858;SDS011;14429;48.346;16.338;2022-08-03T06:02:34;1.67;;;1.35;;
26858;SDS011;14429;48.346;16.338;2022-08-03T06:05:00;1.38;;;1.10;;
26858;SDS011;14429;48.346;16.338;2022-08-03T06:07:25;1.67;;;1.27;;
26858;SDS011;14429;48.346;16.338;2022-08-03T06:09:51;2.78;;;1.52;;
26858;SDS011;14429;48.346;16.338;2022-08-03T06:12:16;1.52;;;1.00;;
26858;SDS011;14429;48.346;16.338;2022-08-03T06:14:42;1.17;;;1.08;;
26858;SDS011;14429;48.346;16.338;2022-08-03T06:17:09;1.88;;;1.45;;
26858;SDS011;14429;48.346;16.338;2022-08-03T06:19:34;2.40;;;2.15;;
26858;SDS011;14429;48.346;16.338;2022-08-03T06:22:00;3.70;;;2.33;;
26858;SDS011;14429;48.346;16.338;2022-08-03T06:24:25;2.30;;;1.85;;
26858;SDS011;14429;48.346;16.338;2022-08-03T06:26:51;1.95;;;1.25;;
26858;SDS011;14429;48.346;16.338;2022-08-03T06:29:16;1.92;;;1.35;;
26858;SDS011;14429;48.346;16.338;2022-08-03T06:31:42;2.88;;;2.13;;
26858;SDS011;14429;48.346;16.338;2022-08-03T06:34:09;2.22;;;2.03;;
26858;SDS011;14429;48.346;16.338;2022-08-03T06:36:35;2.78;;;1.30;;
26858;SDS011;14429;48.346;16.338;2022-08-03T06:39:00;1.55;;;1.40;;
26858;SDS011;14429;48.346;16.338;2022-08-03T06:41:26;4.30;;;3.30;;
26858;SDS011;14429;48.346;16.338;2022-08-03T06:43:52;3.35;;;2.13;;
26858;SDS011;14429;48.346;16.338;2022-08-03T06:46:18;1.27;;;1.17;;
26858;SDS011;14429;48.346;16.338;2022-08-03T06:48:43;5.00;;;1.60;;
26858;SDS011;14429;48.346;16.338;2022-08-03T06:51:11;1.67;;;1.40;;
26858;SDS011;14429;48.346;16.338;2022-08-03T06:53:36;2.22;;;1.55;;
26858;SDS011;14429;48.346;16.338;2022-08-03T06:56:03;3.08;;;1.95;;
26858;SDS011;14429;48.346;16.338;2022-08-03T06:58:29;2.53;;;1.70;;
26858;SDS011;14429;48.346;16.338;2022-08-03T07:00:54;2.40;;;1.88;;
26858;SDS011;14429;48.346;16.338;2022-08-03T07:03:20;3.90;;;2.50;;
26858;SDS011;14429;48.346;16.338;2022-08-03T07:05:45;5.38;;;1.88;;
26858;SDS011;14429;48.346;16.338;2022-08-03T07:08:12;2.83;;;1.90;;
26858;SDS011;14429;48.346;16.338;2022-08-03T07:10:38;1.70;;;1.60;;
26858;SDS011;14429;48.346;16.338;2022-08-03T07:13:03;4.22;;;2.00;;
26858;SDS011;14429;48.346;16.338;2022-08-03T07:15:29;3.45;;;2.30;;
26858;SDS011;14429;48.346;16.338;2022-08-03T07:17:55;4.50;;;1.67;;
26858;SDS011;14429;48.346;16.338;2022-08-03T07:20:21;2.65;;;1.80;;
26858;SDS011;14429;48.346;16.338;2022-08-03T07:22:47;2.83;;;1.85;;
26858;SDS011;14429;48.346;16.338;2022-08-03T07:25:13;3.35;;;1.70;;
26858;SDS011;14429;48.346;16.338;2022-08-03T07:27:42;2.65;;;2.00;;
26858;SDS011;14429;48.346;16.338;2022-08-03T07:30:08;2.50;;;1.80;;
26858;SDS011;14429;48.346;16.338;2022-08-03T07:32:34;6.35;;;2.03;;
26858;SDS011;14429;48.346;16.338;2022-08-03T07:34:59;5.55;;;2.53;;
26858;SDS011;14429;48.346;16.338;2022-08-03T07:37:25;4.13;;;1.83;;
26858;SDS011;14429;48.346;16.338;2022-08-03T07:39:50;4.82;;;2.42;;
26858;SDS011;14429;48.346;16.338;2022-08-03T07:42:17;4.07;;;2.10;;
26858;SDS011;14429;48.346;16.338;2022-08-03T07:44:43;5.28;;;2.65;;
26858;SDS011;14429;48.346;16.338;2022-08-03T07:47:08;3.58;;;2.45;;
26858;SDS011;14429;48.346;16.338;2022-08-03T07:49:37;2.38;;;2.15;;
26858;SDS011;14429;48.346;16.338;2022-08-03T07:52:03;2.30;;;1.83;;
26858;SDS011;14429;48.346;16.338;2022-08-03T07:54:29;3.25;;;2.10;;
26858;SDS011;14429;48.346;16.338;2022-08-03T07:56:54;3.05;;;1.80;;
26858;SDS011;14429;48.346;16.338;2022-08-03T07:59:21;2.38;;;1.83;;
26858;SDS011;14429;48.346;16.338;2022-08-03T08:01:47;2.45;;;1.70;;
26858;SDS011;14429;48.346;16.338;2022-08-03T08:04:12;3.28;;;2.00;;
26858;SDS011;14429;48.346;16.338;2022-08-03T08:06:37;2.38;;;2.10;;
26858;SDS011;14429;48.346;16.338;2022-08-03T08:09:03;4.07;;;2.10;;
26858;SDS011;14429;48.346;16.338;2022-08-03T08:11:28;2.40;;;1.73;;
26858;SDS011;14429;48.346;16.338;2022-08-03T08:13:54;2.33;;;1.83;;
26858;SDS011;14429;48.346;16.338;2022-08-03T08:16:21;2.75;;;1.75;;
26858;SDS011;14429;48.346;16.338;2022-08-03T08:18:46;1.98;;;1.70;;
26858;SDS011;14429;48.346;16.338;2022-08-03T08:21:11;3.95;;;1.92;;
26858;SDS011;14429;48.346;16.338;2022-08-03T08:23:37;2.28;;;2.05;;
26858;SDS011;14429;48.346;16.338;2022-08-03T08:26:02;2.30;;;1.60;;
26858;SDS011;14429;48.346;16.338;2022-08-03T08:28:28;1.60;;;1.50;;
26858;SDS011;14429;48.346;16.338;2022-08-03T08:30:53;2.17;;;1.58;;
26858;SDS011;14429;48.346;16.338;2022-08-03T08:33:20;3.20;;;1.70;;
26858;SDS011;14429;48.346;16.338;2022-08-03T08:35:46;1.95;;;1.60;;
26858;SDS011;14429;48.346;16.338;2022-08-03T08:38:11;2.13;;;1.67;;
26858;SDS011;14429;48.346;16.338;2022-08-03T08:40:36;4.07;;;1.70;;
26858;SDS011;14429;48.346;16.338;2022-08-03T08:43:02;2.70;;;1.90;;
26858;SDS011;14429;48.346;16.338;2022-08-03T08:45:27;1.58;;;1.40;;
26858;SDS011;14429;48.346;16.338;2022-08-03T08:47:54;7.60;;;2.00;;
26858;SDS011;14429;48.346;16.338;2022-08-03T08:50:22;4.43;;;2.50;;
26858;SDS011;14429;48.346;16.338;2022-08-03T08:52:48;2.78;;;1.38;;
26858;SDS011;14429;48.346;16.338;2022-08-03T08:55:18;2.30;;;1.63;;
26858;SDS011;14429;48.346;16.338;2022-08-03T08:57:46;2.20;;;1.75;;
26858;SDS011;14429;48.346;16.338;2022-08-03T09:00:13;2.35;;;1.58;;
26858;SDS011;14429;48.346;16.338;2022-08-03T09:02:40;1.95;;;1.55;;
26858;SDS011;14429;48.346;16.338;2022-08-03T09:05:06;2.28;;;1.52;;
26858;SDS011;14429;48.346;16.338;2022-08-03T09:07:36;2.00;;;1.70;;
26858;SDS011;14429;48.346;16.338;2022-08-03T09:10:01;2.53;;;1.80;;
26858;SDS011;14429;48.346;16.338;2022-08-03T09:12:27;1.67;;;1.50;;
26858;SDS011;14429;48.346;16.338;2022-08-03T09:14:53;2.28;;;1.25;;
26858;SDS011;14429;48.346;16.338;2022-08-03T09:17:19;2.40;;;1.50;;
26858;SDS011;14429;48.346;16.338;2022-08-03T09:20:02;1.73;;;1.40;;
26858;SDS011;14429;48.346;16.338;2022-08-03T09:22:29;1.60;;;1.50;;
26858;SDS011;14429;48.346;16.338;2022-08-03T09:24:56;2.25;;;1.77;;
26858;SDS011;14429;48.346;16.338;2022-08-03T09:27:23;1.75;;;1.58;;
26858;SDS011;14429;48.346;16.338;2022-08-03T09:29:49;2.45;;;1.77;;
26858;SDS011;14429;48.346;16.338;2022-08-03T09:32:18;3.55;;;1.35;;
26858;SDS011;14429;48.346;16.338;2022-08-03T09:34:45;1.65;;;1.55;;
26858;SDS011;14429;48.346;16.338;2022-08-03T09:37:11;1.63;;;1.40;;
26858;SDS011;14429;48.346;16.338;2022-08-03T09:39:38;1.70;;;1.55;;
26858;SDS011;14429;48.346;16.338;2022-08-03T09:42:06;2.63;;;1.95;;
26858;SDS011;14429;48.346;16.338;2022-08-03T09:44:32;3.08;;;1.95;;
26858;SDS011;14429;48.346;16.338;2022-08-03T09:46:58;4.15;;;1.55;;
26858;SDS011;14429;48.346;16.338;2022-08-03T09:49:24;2.55;;;1.80;;
26858;SDS011;14429;48.346;16.338;2022-08-03T09:51:49;4.20;;;1.80;;
26858;SDS011;14429;48.346;16.338;2022-08-03T09:54:24;6.72;;;1.60;;
26858;SDS011;14429;48.346;16.338;2022-08-03T09:56:50;1.65;;;1.40;;
26858;SDS011;14429;48.346;16.338;2022-08-03T09:59:23;5.20;;;2.08;;
26858;SDS011;14429;48.346;16.338;2022-08-03T10:01:49;2.58;;;1.95;;
26858;SDS011;14429;48.346;16.338;2022-08-03T10:04:15;1.83;;;1.60;;
26858;SDS011;14429;48.346;16.338;2022-08-03T10:06:41;2.67;;;1.88;;
26858;SDS011;14429;48.346;16.338;2022-08-03T10:09:08;1.50;;;1.33;;
26858;SDS011;14429;48.346;16.338;2022-08-03T10:11:35;2.20;;;1.48;;
26858;SDS011;14429;48.346;16.338;2022-08-03T10:14:02;1.92;;;1.63;;
26858;SDS011;14429;48.346;16.338;2022-08-03T10:16:31;2.63;;;1.65;;
26858;SDS011;14429;48.346;16.338;2022-08-03T10:18:58;1.75;;;1.65;;
26858;SDS011;14429;48.346;16.338;2022-08-03T10:21:24;2.28;;;1.90;;
26858;SDS011;14429;48.346;16.338;2022-08-03T10:23:54;1.42;;;1.33;;
26858;SDS011;14429;48.346;16.338;2022-08-03T10:26:21;2.45;;;1.83;;
26858;SDS011;14429;48.346;16.338;2022-08-03T10:28:49;1.85;;;1.40;;
26858;SDS011;14429;48.346;16.338;2022-08-03T10:31:18;3.70;;;1.30;;
26858;SDS011;14429;48.346;16.338;2022-08-03T10:33:48;1.75;;;1.55;;
26858;SDS011;14429;48.346;16.338;2022-08-03T10:36:15;1.70;;;1.60;;
26858;SDS011;14429;48.346;16.338;2022-08-03T10:38:42;1.88;;;1.60;;
26858;SDS011;14429;48.346;16.338;2022-08-03T10:41:11;2.10;;;1.75;;
26858;SDS011;14429;48.346;16.338;2022-08-03T10:43:40;1.55;;;1.45;;
26858;SDS011;14429;48.346;16.338;2022-08-03T10:46:09;2.03;;;1.70;;
26858;SDS011;14429;48.346;16.338;2022-08-03T10:48:35;1.60;;;1.30;;
26858;SDS011;14429;48.346;16.338;2022-08-03T10:51:03;1.52;;;1.38;;
26858;SDS011;14429;48.346;16.338;2022-08-03T10:53:35;1.63;;;1.23;;
26858;SDS011;14429;48.346;16.338;2022-08-03T10:56:01;1.90;;;1.70;;
26858;SDS011;14429;48.346;16.338;2022-08-03T10:58:46;2.13;;;1.55;;
26858;SDS011;14429;48.346;16.338;2022-08-03T11:01:12;2.22;;;1.50;;
26858;SDS011;14429;48.346;16.338;2022-08-03T11:04:12;2.28;;;1.60;;
26858;SDS011;14429;48.346;16.338;2022-08-03T11:06:41;1.73;;;1.63;;
26858;SDS011;14429;48.346;16.338;2022-08-03T11:09:17;2.28;;;1.20;;
26858;SDS011;14429;48.346;16.338;2022-08-03T11:11:43;2.22;;;1.48;;
26858;SDS011;14429;48.346;16.338;2022-08-03T11:14:11;1.98;;;1.33;;
26858;SDS011;14429;48.346;16.338;2022-08-03T11:16:40;3.58;;;1.20;;
26858;SDS011;14429;48.346;16.338;2022-08-03T11:19:08;1.75;;;1.50;;
26858;SDS011;14429;48.346;16.338;2022-08-03T11:21:55;2.95;;;1.92;;
26858;SDS011;14429;48.346;16.338;2022-08-03T11:27:21;1.67;;;1.58;;
26858;SDS011;14429;48.346;16.338;2022-08-03T11:29:54;2.67;;;1.20;;
26858;SDS011;14429;48.346;16.338;2022-08-03T11:35:15;2.42;;;1.67;;
26858;SDS011;14429;48.346;16.338;2022-08-03T11:40:32;1.15;;;1.08;;
26858;SDS011;14429;48.346;16.338;2022-08-03T11:42:59;2.22;;;1.88;;
26858;SDS011;14429;48.346;16.338;2022-08-03T11:45:25;2.15;;;1.40;;
26858;SDS011;14429;48.346;16.338;2022-08-03T11:47:50;1.50;;;1.23;;
26858;SDS011;14429;48.346;16.338;2022-08-03T11:50:19;1.85;;;1.60;;
26858;SDS011;14429;48.346;16.338;2022-08-03T11:52:44;2.05;;;1.58;;
26858;SDS011;14429;48.346;16.338;2022-08-03T11:55:13;1.55;;;1.30;;
26858;SDS011;14429;48.346;16.338;2022-08-03T11:57:40;5.38;;;1.73;;
26858;SDS011;14429;48.346;16.338;2022-08-03T12:02:54;1.40;;;1.30;;
26858;SDS011;14429;48.346;16.338;2022-08-03T12:05:24;1.35;;;1.10;;
26858;SDS011;14429;48.346;16.338;2022-08-03T12:07:57;1.50;;;1.30;;
26858;SDS011;14429;48.346;16.338;2022-08-03T12:10:24;1.20;;;1.10;;
26858;SDS011;14429;48.346;16.338;2022-08-03T12:12:53;1.98;;;1.25;;
26858;SDS011;14429;48.346;16.338;2022-08-03T12:15:23;1.27;;;1.17;;
26858;SDS011;14429;48.346;16.338;2022-08-03T12:17:49;2.63;;;1.60;;
26858;SDS011;14429;48.346;16.338;2022-08-03T12:20:19;1.67;;;1.58;;
26858;SDS011;14429;48.346;16.338;2022-08-03T12:22:46;1.63;;;1.52;;
26858;SDS011;14429;48.346;16.338;2022-08-03T12:25:19;1.90;;;1.52;;
26858;SDS011;14429;48.346;16.338;2022-08-03T12:27:46;1.45;;;1.08;;
26858;SDS011;14429;48.346;16.338;2022-08-03T12:30:12;2.05;;;1.60;;
26858;SDS011;14429;48.346;16.338;2022-08-03T12:32:38;1.55;;;1.23;;
26858;SDS011;14429;48.346;16.338;2022-08-03T12:35:04;1.40;;;1.30;;
26858;SDS011;14429;48.346;16.338;2022-08-03T12:37:30;1.77;;;1.05;;
26858;SDS011;14429;48.346;16.338;2022-08-03T12:39:56;2.00;;;1.60;;
26858;SDS011;14429;48.346;16.338;2022-08-03T12:42:28;2.28;;;1.17;;
26858;SDS011;14429;48.346;16.338;2022-08-03T12:44:55;1.23;;;1.02;;
26858;SDS011;14429;48.346;16.338;2022-08-03T12:47:21;1.75;;;1.40;;
26858;SDS011;14429;48.346;16.338;2022-08-03T12:49:47;2.42;;;1.70;;
26858;SDS011;14429;48.346;16.338;2022-08-03T12:52:13;1.77;;;1.33;;
26858;SDS011;14429;48.346;16.338;2022-08-03T12:54:39;2.70;;;1.30;;
26858;SDS011;14429;48.346;16.338;2022-08-03T12:57:05;4.00;;;2.17;;
26858;SDS011;14429;48.346;16.338;2022-08-03T12:59:32;2.20;;;1.80;;
26858;SDS011;14429;48.346;16.338;2022-08-03T13:02:00;2.30;;;1.70;;
26858;SDS011;14429;48.346;16.338;2022-08-03T13:04:28;1.23;;;1.10;;
26858;SDS011;14429;48.346;16.338;2022-08-03T13:06:58;1.85;;;1.35;;
26858;SDS011;14429;48.346;16.338;2022-08-03T13:09:24;1.85;;;1.52;;
26858;SDS011;14429;48.346;16.338;2022-08-03T13:12:03;1.73;;;1.50;;
26858;SDS011;14429;48.346;16.338;2022-08-03T13:14:29;1.48;;;1.38;;
26858;SDS011;14429;48.346;16.338;2022-08-03T13:16:54;2.28;;;1.55;;
26858;SDS011;14429;48.346;16.338;2022-08-03T13:19:21;1.85;;;1.35;;
26858;SDS011;14429;48.346;16.338;2022-08-03T13:21:46;2.50;;;1.58;;
26858;SDS011;14429;48.346;16.338;2022-08-03T13:24:12;1.80;;;1.48;;
26858;SDS011;14429;48.346;16.338;2022-08-03T13:26:38;1.10;;;0.98;;
26858;SDS011;14429;48.346;16.338;2022-08-03T13:29:03;1.75;;;1.63;;
26858;SDS011;14429;48.346;16.338;2022-08-03T13:31:28;1.70;;;1.55;;
26858;SDS011;14429;48.346;16.338;2022-08-03T13:33:54;1.35;;;1.25;;
26858;SDS011;14429;48.346;16.338;2022-08-03T13:36:21;1.40;;;1.30;;
26858;SDS011;14429;48.346;16.338;2022-08-03T13:38:46;6.13;;;1.38;;
26858;SDS011;14429;48.346;16.338;2022-08-03T13:41:12;1.55;;;1.42;;
26858;SDS011;14429;48.346;16.338;2022-08-03T13:43:37;1.45;;;1.30;;
26858;SDS011;14429;48.346;16.338;2022-08-03T13:46:02;1.58;;;1.17;;
26858;SDS011;14429;48.346;16.338;2022-08-03T13:48:28;1.30;;;1.20;;
26858;SDS011;14429;48.346;16.338;2022-08-03T13:50:53;4.75;;;1.40;;
26858;SDS011;14429;48.346;16.338;2022-08-03T13:53:20;1.23;;;1.13;;
26858;SDS011;14429;48.346;16.338;2022-08-03T13:55:46;2.22;;;1.30;;
26858;SDS011;14429;48.346;16.338;2022-08-03T13:58:11;3.88;;;1.10;;
26858;SDS011;14429;48.346;16.338;2022-08-03T14:00:37;3.17;;;1.75;;
26858;SDS011;14429;48.346;16.338;2022-08-03T14:03:03;1.50;;;1.38;;
26858;SDS011;14429;48.346;16.338;2022-08-03T14:05:28;1.67;;;1.50;;
26858;SDS011;14429;48.346;16.338;2022-08-03T14:07:54;1.45;;;1.35;;
26858;SDS011;14429;48.346;16.338;2022-08-03T14:10:21;1.80;;;1.17;;
26858;SDS011;14429;48.346;16.338;2022-08-03T14:12:46;1.98;;;1.23;;
26858;SDS011;14429;48.346;16.338;2022-08-03T14:15:12;1.35;;;1.20;;
26858;SDS011;14429;48.346;16.338;2022-08-03T14:17:37;1.73;;;1.33;;
26858;SDS011;14429;48.346;16.338;2022-08-03T14:20:03;1.48;;;1.38;;
26858;SDS011;14429;48.346;16.338;2022-08-03T14:22:29;1.35;;;1.25;;
26858;SDS011;14429;48.346;16.338;2022-08-03T14:24:55;2.00;;;0.90;;
26858;SDS011;14429;48.346;16.338;2022-08-03T14:27:22;1.88;;;1.42;;
26858;SDS011;14429;48.346;16.338;2022-08-03T14:29:47;2.90;;;1.50;;
26858;SDS011;14429;48.346;16.338;2022-08-03T14:32:13;1.10;;;1.00;;
26858;SDS011;14429;48.346;16.338;2022-08-03T14:34:38;3.85;;;1.20;;
26858;SDS011;14429;48.346;16.338;2022-08-03T14:37:04;1.88;;;1.30;;
26858;SDS011;14429;48.346;16.338;2022-08-03T14:39:29;1.25;;;1.15;;
26858;SDS011;14429;48.346;16.338;2022-08-03T14:41:55;1.20;;;1.08;;
26858;SDS011;14429;48.346;16.338;2022-08-03T14:44:21;1.25;;;0.98;;